sensor_id;sensor_type;location;lat;lon;timestamp;P1;durP1;ratioP1;P2;durP2;ratioP2
3867;SDS011;1949;48.152;11.528;2023-01-19T00:00:52;17.17;;;4.93;;
3867;SDS011;1949;48.152;11.528;2023-01-19T00:03:28;11.23;;;4.83;;
3867;SDS011;1949;48.152;11.528;2023-01-19T00:05:54;5.93;;;4.20;;
3867;SDS011;1949;48.152;11.528;2023-01-19T00:08:20;11.10;;;5.33;;
3867;SDS011;1949;48.152;11.528;2023-01-19T00:10:47;9.13;;;4.63;;
3867;SDS011;1949;48.152;11.528;2023-01-19T00:13:15;9.00;;;5.20;;
3867;SDS011;1949;48.152;11.528;2023-01-19T00:15:41;20.20;;;5.67;;
3867;SDS011;1949;48.152;11.528;2023-01-19T00:18:09;7.53;;;5.10;;
3867;SDS011;1949;48.152;11.528;2023-01-19T00:20:35;10.67;;;4.70;;
3867;SDS011;1949;48.152;11.528;2023-01-19T00:23:02;10.77;;;5.10;;
3867;SDS011;1949;48.152;11.528;2023-01-19T00:25:30;13.47;;;5.10;;
3867;SDS011;1949;48.152;11.528;2023-01-19T00:27:57;8.80;;;5.03;;
3867;SDS011;1949;48.152;11.528;2023-01-19T00:32:52;7.30;;;4.70;;
3867;SDS011;1949;48.152;11.528;2023-01-19T00:35:18;8.07;;;4.80;;
3867;SDS011;1949;48.152;11.528;2023-01-19T00:37:45;12.33;;;5.23;;
3867;SDS011;1949;48.152;11.528;2023-01-19T00:40:11;9.50;;;5.23;;
3867;SDS011;1949;48.152;11.528;2023-01-19T00:42:40;11.90;;;5.00;;
3867;SDS011;1949;48.152;11.528;2023-01-19T00:45:18;11.43;;;5.60;;
3867;SDS011;1949;48.152;11.528;2023-01-19T00:47:49;9.90;;;4.53;;
3867;SDS011;1949;48.152;11.528;2023-01-19T00:50:22;16.90;;;5.93;;
3867;SDS011;1949;48.152;11.528;2023-01-19T00:52:50;9.97;;;5.33;;
3867;SDS011;1949;48.152;11.528;2023-01-19T00:55:18;10.00;;;4.60;;
3867;SDS011;1949;48.152;11.528;2023-01-19T00:57:47;13.03;;;5.50;;
3867;SDS011;1949;48.152;11.528;2023-01-19T01:00:16;8.00;;;4.67;;
3867;SDS011;1949;48.152;11.528;2023-01-19T01:02:44;7.93;;;4.33;;
3867;SDS011;1949;48.152;11.528;2023-01-19T01:05:16;7.20;;;4.40;;
3867;SDS011;1949;48.152;11.528;2023-01-19T01:07:44;13.57;;;4.50;;
3867;SDS011;1949;48.152;11.528;2023-01-19T01:10:19;9.77;;;4.63;;
3867;SDS011;1949;48.152;11.528;2023-01-19T01:12:59;8.90;;;4.40;;
3867;SDS011;1949;48.152;11.528;2023-01-19T01:15:32;7.43;;;4.03;;
3867;SDS011;1949;48.152;11.528;2023-01-19T01:17:58;8.47;;;4.53;;
3867;SDS011;1949;48.152;11.528;2023-01-19T01:20:25;8.23;;;4.23;;
3867;SDS011;1949;48.152;11.528;2023-01-19T01:22:53;7.97;;;4.27;;
3867;SDS011;1949;48.152;11.528;2023-01-19T01:25:20;8.40;;;4.90;;
3867;SDS011;1949;48.152;11.528;2023-01-19T01:27:47;8.10;;;4.20;;
3867;SDS011;1949;48.152;11.528;2023-01-19T01:30:14;9.57;;;4.17;;
3867;SDS011;1949;48.152;11.528;2023-01-19T01:32:42;12.13;;;4.27;;
3867;SDS011;1949;48.152;11.528;2023-01-19T01:35:10;8.93;;;4.40;;
3867;SDS011;1949;48.152;11.528;2023-01-19T01:37:38;9.80;;;4.90;;
3867;SDS011;1949;48.152;11.528;2023-01-19T01:40:05;8.23;;;4.23;;
3867;SDS011;1949;48.152;11.528;2023-01-19T01:42:31;11.67;;;4.60;;
3867;SDS011;1949;48.152;11.528;2023-01-19T01:45:01;12.13;;;4.97;;
3867;SDS011;1949;48.152;11.528;2023-01-19T01:47:45;10.63;;;4.90;;
3867;SDS011;1949;48.152;11.528;2023-01-19T01:50:21;6.07;;;4.10;;
3867;SDS011;1949;48.152;11.528;2023-01-19T01:53:09;8.23;;;4.20;;
3867;SDS011;1949;48.152;11.528;2023-01-19T01:55:40;7.50;;;4.37;;
3867;SDS011;1949;48.152;11.528;2023-01-19T01:58:12;7.77;;;4.50;;
3867;SDS011;1949;48.152;11.528;2023-01-19T02:00:40;12.17;;;5.50;;
3867;SDS011;1949;48.152;11.528;2023-01-19T02:03:25;8.33;;;4.10;;
3867;SDS011;1949;48.152;11.528;2023-01-19T02:06:00;10.10;;;4.83;;
3867;SDS011;1949;48.152;11.528;2023-01-19T02:08:42;10.80;;;5.00;;
3867;SDS011;1949;48.152;11.528;2023-01-19T02:11:35;7.90;;;4.30;;
3867;SDS011;1949;48.152;11.528;2023-01-19T02:14:22;13.17;;;4.03;;
3867;SDS011;1949;48.152;11.528;2023-01-19T02:16:48;8.60;;;4.63;;
3867;SDS011;1949;48.152;11.528;2023-01-19T02:19:29;17.30;;;4.83;;
3867;SDS011;1949;48.152;11.528;2023-01-19T02:24:45;8.13;;;3.13;;
3867;SDS011;1949;48.152;11.528;2023-01-19T02:27:12;6.80;;;3.47;;
3867;SDS011;1949;48.152;11.528;2023-01-19T02:29:43;6.00;;;2.87;;
3867;SDS011;1949;48.152;11.528;2023-01-19T02:32:09;6.83;;;4.07;;
3867;SDS011;1949;48.152;11.528;2023-01-19T02:34:37;15.80;;;3.80;;
3867;SDS011;1949;48.152;11.528;2023-01-19T02:37:13;5.60;;;3.30;;
3867;SDS011;1949;48.152;11.528;2023-01-19T02:39:53;6.73;;;3.67;;
3867;SDS011;1949;48.152;11.528;2023-01-19T02:42:26;7.07;;;3.23;;
3867;SDS011;1949;48.152;11.528;2023-01-19T02:45:05;4.60;;;3.43;;
3867;SDS011;1949;48.152;11.528;2023-01-19T02:47:46;4.03;;;2.53;;
3867;SDS011;1949;48.152;11.528;2023-01-19T03:02:22;13.97;;;2.63;;
3867;SDS011;1949;48.152;11.528;2023-01-19T03:05:25;4.43;;;2.70;;
3867;SDS011;1949;48.152;11.528;2023-01-19T03:11:15;4.20;;;2.90;;
3867;SDS011;1949;48.152;11.528;2023-01-19T03:21:53;5.00;;;3.30;;
3867;SDS011;1949;48.152;11.528;2023-01-19T03:24:29;8.63;;;4.23;;
3867;SDS011;1949;48.152;11.528;2023-01-19T03:27:04;7.47;;;3.83;;
3867;SDS011;1949;48.152;11.528;2023-01-19T03:29:35;6.13;;;3.77;;
3867;SDS011;1949;48.152;11.528;2023-01-19T03:32:06;8.50;;;4.07;;
3867;SDS011;1949;48.152;11.528;2023-01-19T03:34:36;7.30;;;4.20;;
3867;SDS011;1949;48.152;11.528;2023-01-19T03:37:05;7.00;;;3.80;;
3867;SDS011;1949;48.152;11.528;2023-01-19T03:39:35;12.47;;;4.00;;
3867;SDS011;1949;48.152;11.528;2023-01-19T03:42:01;9.07;;;4.40;;
3867;SDS011;1949;48.152;11.528;2023-01-19T03:44:36;6.53;;;4.23;;
3867;SDS011;1949;48.152;11.528;2023-01-19T03:47:04;10.63;;;4.03;;
3867;SDS011;1949;48.152;11.528;2023-01-19T03:49:32;8.90;;;4.40;;
3867;SDS011;1949;48.152;11.528;2023-01-19T03:52:00;6.57;;;3.70;;
3867;SDS011;1949;48.152;11.528;2023-01-19T03:54:26;7.43;;;3.90;;
3867;SDS011;1949;48.152;11.528;2023-01-19T03:56:52;8.93;;;4.40;;
3867;SDS011;1949;48.152;11.528;2023-01-19T03:59:18;5.70;;;4.17;;
3867;SDS011;1949;48.152;11.528;2023-01-19T04:01:47;6.13;;;4.20;;
3867;SDS011;1949;48.152;11.528;2023-01-19T04:06:43;5.57;;;4.20;;
3867;SDS011;1949;48.152;11.528;2023-01-19T04:09:10;10.70;;;4.57;;
3867;SDS011;1949;48.152;11.528;2023-01-19T04:11:35;6.33;;;3.77;;
3867;SDS011;1949;48.152;11.528;2023-01-19T04:14:01;29.80;;;4.90;;
3867;SDS011;1949;48.152;11.528;2023-01-19T04:16:34;7.10;;;3.90;;
3867;SDS011;1949;48.152;11.528;2023-01-19T04:19:00;8.70;;;4.40;;
3867;SDS011;1949;48.152;11.528;2023-01-19T04:23:57;6.40;;;4.70;;
3867;SDS011;1949;48.152;11.528;2023-01-19T04:26:24;10.03;;;4.27;;
3867;SDS011;1949;48.152;11.528;2023-01-19T04:28:49;6.83;;;3.70;;
3867;SDS011;1949;48.152;11.528;2023-01-19T04:31:15;8.23;;;4.13;;
3867;SDS011;1949;48.152;11.528;2023-01-19T04:33:41;10.10;;;4.40;;
3867;SDS011;1949;48.152;11.528;2023-01-19T04:36:06;8.67;;;4.57;;
3867;SDS011;1949;48.152;11.528;2023-01-19T04:38:34;9.47;;;4.50;;
3867;SDS011;1949;48.152;11.528;2023-01-19T04:41:00;7.10;;;4.83;;
3867;SDS011;1949;48.152;11.528;2023-01-19T04:43:27;12.40;;;5.60;;
3867;SDS011;1949;48.152;11.528;2023-01-19T04:45:55;17.60;;;8.23;;
3867;SDS011;1949;48.152;11.528;2023-01-19T04:48:21;8.00;;;4.40;;
3867;SDS011;1949;48.152;11.528;2023-01-19T04:50:49;8.80;;;5.40;;
3867;SDS011;1949;48.152;11.528;2023-01-19T04:53:21;11.37;;;4.90;;
3867;SDS011;1949;48.152;11.528;2023-01-19T04:58:18;12.60;;;5.90;;
3867;SDS011;1949;48.152;11.528;2023-01-19T05:00:54;8.30;;;5.10;;
3867;SDS011;1949;48.152;11.528;2023-01-19T05:05:55;9.60;;;4.73;;
3867;SDS011;1949;48.152;11.528;2023-01-19T05:08:23;9.93;;;5.40;;
3867;SDS011;1949;48.152;11.528;2023-01-19T05:10:59;9.07;;;5.30;;
3867;SDS011;1949;48.152;11.528;2023-01-19T05:13:37;12.50;;;6.23;;
3867;SDS011;1949;48.152;11.528;2023-01-19T05:16:03;9.40;;;4.97;;
3867;SDS011;1949;48.152;11.528;2023-01-19T05:18:32;7.07;;;4.73;;
3867;SDS011;1949;48.152;11.528;2023-01-19T05:21:02;13.90;;;6.10;;
3867;SDS011;1949;48.152;11.528;2023-01-19T05:23:29;13.17;;;7.00;;
3867;SDS011;1949;48.152;11.528;2023-01-19T05:28:33;7.77;;;4.97;;
3867;SDS011;1949;48.152;11.528;2023-01-19T05:31:00;12.90;;;6.00;;
3867;SDS011;1949;48.152;11.528;2023-01-19T05:33:25;14.10;;;5.73;;
3867;SDS011;1949;48.152;11.528;2023-01-19T05:35:53;8.50;;;5.30;;
3867;SDS011;1949;48.152;11.528;2023-01-19T05:38:19;13.37;;;6.40;;
3867;SDS011;1949;48.152;11.528;2023-01-19T05:40:46;8.23;;;4.90;;
3867;SDS011;1949;48.152;11.528;2023-01-19T05:43:14;8.80;;;4.87;;
3867;SDS011;1949;48.152;11.528;2023-01-19T05:45:46;13.30;;;6.10;;
3867;SDS011;1949;48.152;11.528;2023-01-19T05:48:15;15.30;;;5.67;;
3867;SDS011;1949;48.152;11.528;2023-01-19T05:50:43;11.07;;;5.60;;
3867;SDS011;1949;48.152;11.528;2023-01-19T05:53:11;14.80;;;7.07;;
3867;SDS011;1949;48.152;11.528;2023-01-19T05:55:51;14.73;;;6.90;;
3867;SDS011;1949;48.152;11.528;2023-01-19T05:58:18;12.50;;;6.40;;
3867;SDS011;1949;48.152;11.528;2023-01-19T06:00:44;15.83;;;6.50;;
3867;SDS011;1949;48.152;11.528;2023-01-19T06:03:10;13.23;;;5.77;;
3867;SDS011;1949;48.152;11.528;2023-01-19T06:05:36;16.30;;;6.17;;
3867;SDS011;1949;48.152;11.528;2023-01-19T06:08:03;14.17;;;6.27;;
3867;SDS011;1949;48.152;11.528;2023-01-19T06:10:38;10.23;;;5.37;;
3867;SDS011;1949;48.152;11.528;2023-01-19T06:15:39;13.37;;;6.00;;
3867;SDS011;1949;48.152;11.528;2023-01-19T06:20:36;13.43;;;6.23;;
3867;SDS011;1949;48.152;11.528;2023-01-19T06:23:08;16.70;;;6.83;;
3867;SDS011;1949;48.152;11.528;2023-01-19T06:25:45;10.33;;;5.70;;
3867;SDS011;1949;48.152;11.528;2023-01-19T06:28:13;20.33;;;5.50;;
3867;SDS011;1949;48.152;11.528;2023-01-19T06:30:39;10.87;;;6.47;;
3867;SDS011;1949;48.152;11.528;2023-01-19T06:33:06;14.80;;;6.60;;
3867;SDS011;1949;48.152;11.528;2023-01-19T06:35:42;9.37;;;5.47;;
3867;SDS011;1949;48.152;11.528;2023-01-19T06:38:08;14.03;;;6.30;;
3867;SDS011;1949;48.152;11.528;2023-01-19T06:40:34;14.00;;;6.30;;
3867;SDS011;1949;48.152;11.528;2023-01-19T06:43:00;14.40;;;6.37;;
3867;SDS011;1949;48.152;11.528;2023-01-19T06:45:27;11.00;;;6.20;;
3867;SDS011;1949;48.152;11.528;2023-01-19T06:47:54;12.63;;;6.90;;
3867;SDS011;1949;48.152;11.528;2023-01-19T06:50:20;11.83;;;5.93;;
3867;SDS011;1949;48.152;11.528;2023-01-19T06:52:48;17.63;;;7.00;;
3867;SDS011;1949;48.152;11.528;2023-01-19T06:55:16;15.10;;;6.20;;
3867;SDS011;1949;48.152;11.528;2023-01-19T06:57:54;12.87;;;6.10;;
3867;SDS011;1949;48.152;11.528;2023-01-19T07:00:28;13.73;;;6.47;;
3867;SDS011;1949;48.152;11.528;2023-01-19T07:03:00;13.90;;;6.17;;
3867;SDS011;1949;48.152;11.528;2023-01-19T07:05:27;13.90;;;6.87;;
3867;SDS011;1949;48.152;11.528;2023-01-19T07:07:54;11.43;;;6.33;;
3867;SDS011;1949;48.152;11.528;2023-01-19T07:12:55;21.10;;;7.30;;
3867;SDS011;1949;48.152;11.528;2023-01-19T07:15:27;12.40;;;6.60;;
3867;SDS011;1949;48.152;11.528;2023-01-19T07:17:56;15.60;;;7.57;;
3867;SDS011;1949;48.152;11.528;2023-01-19T07:20:24;13.80;;;6.13;;
3867;SDS011;1949;48.152;11.528;2023-01-19T07:22:57;16.33;;;6.73;;
3867;SDS011;1949;48.152;11.528;2023-01-19T07:25:23;14.80;;;6.50;;
3867;SDS011;1949;48.152;11.528;2023-01-19T07:27:49;11.83;;;6.40;;
3867;SDS011;1949;48.152;11.528;2023-01-19T07:30:16;15.10;;;7.17;;
3867;SDS011;1949;48.152;11.528;2023-01-19T07:32:42;12.13;;;5.90;;
3867;SDS011;1949;48.152;11.528;2023-01-19T07:35:17;14.67;;;6.30;;
3867;SDS011;1949;48.152;11.528;2023-01-19T07:37:49;10.87;;;5.70;;
3867;SDS011;1949;48.152;11.528;2023-01-19T07:40:17;11.20;;;5.63;;
3867;SDS011;1949;48.152;11.528;2023-01-19T07:42:46;13.87;;;6.80;;
3867;SDS011;1949;48.152;11.528;2023-01-19T07:45:15;10.80;;;5.60;;
3867;SDS011;1949;48.152;11.528;2023-01-19T07:47:44;26.07;;;10.33;;
3867;SDS011;1949;48.152;11.528;2023-01-19T07:50:13;19.07;;;7.17;;
3867;SDS011;1949;48.152;11.528;2023-01-19T07:52:50;12.13;;;6.53;;
3867;SDS011;1949;48.152;11.528;2023-01-19T07:55:19;10.67;;;5.60;;
3867;SDS011;1949;48.152;11.528;2023-01-19T07:57:50;13.93;;;6.27;;
3867;SDS011;1949;48.152;11.528;2023-01-19T08:02:48;14.60;;;6.17;;
3867;SDS011;1949;48.152;11.528;2023-01-19T08:05:28;11.67;;;6.20;;
3867;SDS011;1949;48.152;11.528;2023-01-19T08:10:29;13.67;;;6.53;;
3867;SDS011;1949;48.152;11.528;2023-01-19T08:12:55;16.73;;;6.30;;
3867;SDS011;1949;48.152;11.528;2023-01-19T08:15:22;17.43;;;5.97;;
3867;SDS011;1949;48.152;11.528;2023-01-19T08:17:58;15.50;;;6.87;;
3867;SDS011;1949;48.152;11.528;2023-01-19T08:20:26;12.57;;;5.60;;
3867;SDS011;1949;48.152;11.528;2023-01-19T08:22:55;16.10;;;6.90;;
3867;SDS011;1949;48.152;11.528;2023-01-19T08:25:33;15.73;;;5.90;;
3867;SDS011;1949;48.152;11.528;2023-01-19T08:28:01;9.67;;;5.40;;
3867;SDS011;1949;48.152;11.528;2023-01-19T08:30:31;11.07;;;5.80;;
3867;SDS011;1949;48.152;11.528;2023-01-19T08:32:59;18.47;;;6.83;;
3867;SDS011;1949;48.152;11.528;2023-01-19T08:38:06;14.50;;;6.93;;
3867;SDS011;1949;48.152;11.528;2023-01-19T08:40:43;15.17;;;5.70;;
3867;SDS011;1949;48.152;11.528;2023-01-19T08:43:15;11.50;;;5.30;;
3867;SDS011;1949;48.152;11.528;2023-01-19T08:48:15;17.37;;;7.07;;
3867;SDS011;1949;48.152;11.528;2023-01-19T08:50:49;11.87;;;6.20;;
3867;SDS011;1949;48.152;11.528;2023-01-19T08:53:17;11.70;;;6.40;;
3867;SDS011;1949;48.152;11.528;2023-01-19T08:55:54;12.80;;;5.70;;
3867;SDS011;1949;48.152;11.528;2023-01-19T08:58:22;11.60;;;5.37;;
3867;SDS011;1949;48.152;11.528;2023-01-19T09:00:54;11.63;;;5.70;;
3867;SDS011;1949;48.152;11.528;2023-01-19T09:03:25;12.93;;;6.50;;
3867;SDS011;1949;48.152;11.528;2023-01-19T09:05:58;10.87;;;6.03;;
3867;SDS011;1949;48.152;11.528;2023-01-19T09:08:31;18.17;;;7.40;;
3867;SDS011;1949;48.152;11.528;2023-01-19T09:10:57;12.53;;;5.97;;
3867;SDS011;1949;48.152;11.528;2023-01-19T09:13:23;15.80;;;7.10;;
3867;SDS011;1949;48.152;11.528;2023-01-19T09:15:49;23.00;;;8.73;;
3867;SDS011;1949;48.152;11.528;2023-01-19T09:18:27;12.07;;;6.70;;
3867;SDS011;1949;48.152;11.528;2023-01-19T09:21:01;12.60;;;7.07;;
3867;SDS011;1949;48.152;11.528;2023-01-19T09:23:37;9.47;;;5.37;;
3867;SDS011;1949;48.152;11.528;2023-01-19T09:26:04;11.93;;;5.20;;
3867;SDS011;1949;48.152;11.528;2023-01-19T09:28:30;11.60;;;5.47;;
3867;SDS011;1949;48.152;11.528;2023-01-19T09:30:56;16.27;;;7.43;;
3867;SDS011;1949;48.152;11.528;2023-01-19T09:33:29;12.40;;;5.90;;
3867;SDS011;1949;48.152;11.528;2023-01-19T09:35:55;11.53;;;5.60;;
3867;SDS011;1949;48.152;11.528;2023-01-19T09:38:22;16.10;;;6.57;;
3867;SDS011;1949;48.152;11.528;2023-01-19T09:40:51;12.90;;;6.40;;
3867;SDS011;1949;48.152;11.528;2023-01-19T09:49:01;9.60;;;4.90;;
3867;SDS011;1949;48.152;11.528;2023-01-19T09:51:38;15.20;;;6.30;;
3867;SDS011;1949;48.152;11.528;2023-01-19T09:54:15;18.87;;;5.40;;
3867;SDS011;1949;48.152;11.528;2023-01-19T09:57:04;44.70;;;14.20;;
3867;SDS011;1949;48.152;11.528;2023-01-19T09:59:35;14.27;;;6.40;;
3867;SDS011;1949;48.152;11.528;2023-01-19T10:04:50;11.87;;;5.30;;
3867;SDS011;1949;48.152;11.528;2023-01-19T10:07:31;6.27;;;4.13;;
3867;SDS011;1949;48.152;11.528;2023-01-19T10:12:57;12.80;;;5.23;;
3867;SDS011;1949;48.152;11.528;2023-01-19T10:18:43;11.70;;;5.90;;
3867;SDS011;1949;48.152;11.528;2023-01-19T10:21:30;13.07;;;5.60;;
3867;SDS011;1949;48.152;11.528;2023-01-19T10:26:55;15.40;;;6.20;;
3867;SDS011;1949;48.152;11.528;2023-01-19T10:29:29;12.77;;;5.53;;
3867;SDS011;1949;48.152;11.528;2023-01-19T10:32:13;9.10;;;4.40;;
3867;SDS011;1949;48.152;11.528;2023-01-19T10:34:44;11.00;;;5.50;;
3867;SDS011;1949;48.152;11.528;2023-01-19T10:39:53;8.93;;;4.50;;
3867;SDS011;1949;48.152;11.528;2023-01-19T10:42:41;8.47;;;4.73;;
3867;SDS011;1949;48.152;11.528;2023-01-19T10:45:20;13.23;;;4.10;;
3867;SDS011;1949;48.152;11.528;2023-01-19T10:47:49;10.77;;;4.93;;
3867;SDS011;1949;48.152;11.528;2023-01-19T10:52:51;8.83;;;4.40;;
3867;SDS011;1949;48.152;11.528;2023-01-19T10:55:25;12.40;;;4.53;;
3867;SDS011;1949;48.152;11.528;2023-01-19T10:57:56;6.87;;;3.93;;
3867;SDS011;1949;48.152;11.528;2023-01-19T11:00:38;10.13;;;4.57;;
3867;SDS011;1949;48.152;11.528;2023-01-19T11:03:27;8.37;;;4.27;;
3867;SDS011;1949;48.152;11.528;2023-01-19T11:08:47;7.80;;;3.33;;
3867;SDS011;1949;48.152;11.528;2023-01-19T11:11:24;7.00;;;4.37;;
3867;SDS011;1949;48.152;11.528;2023-01-19T11:14:06;7.93;;;3.70;;
3867;SDS011;1949;48.152;11.528;2023-01-19T11:16:35;11.70;;;5.30;;
3867;SDS011;1949;48.152;11.528;2023-01-19T11:19:04;6.67;;;4.17;;
3867;SDS011;1949;48.152;11.528;2023-01-19T11:21:49;7.53;;;3.70;;
3867;SDS011;1949;48.152;11.528;2023-01-19T11:24:15;6.90;;;3.67;;
3867;SDS011;1949;48.152;11.528;2023-01-19T11:26:59;5.50;;;3.30;;
3867;SDS011;1949;48.152;11.528;2023-01-19T11:29:33;9.23;;;4.30;;
3867;SDS011;1949;48.152;11.528;2023-01-19T11:32:19;6.77;;;3.80;;
3867;SDS011;1949;48.152;11.528;2023-01-19T11:34:49;6.23;;;3.60;;
3867;SDS011;1949;48.152;11.528;2023-01-19T11:39:47;10.97;;;3.67;;
3867;SDS011;1949;48.152;11.528;2023-01-19T11:42:16;9.00;;;4.10;;
3867;SDS011;1949;48.152;11.528;2023-01-19T11:47:41;7.00;;;3.83;;
3867;SDS011;1949;48.152;11.528;2023-01-19T11:53:43;21.97;;;8.03;;
3867;SDS011;1949;48.152;11.528;2023-01-19T11:55:54;13.57;;;6.47;;
3867;SDS011;1949;48.152;11.528;2023-01-19T11:58:29;4.60;;;3.07;;
3867;SDS011;1949;48.152;11.528;2023-01-19T12:01:10;13.03;;;4.93;;
3867;SDS011;1949;48.152;11.528;2023-01-19T12:06:55;7.13;;;3.50;;
3867;SDS011;1949;48.152;11.528;2023-01-19T12:09:26;4.80;;;3.23;;
3867;SDS011;1949;48.152;11.528;2023-01-19T12:12:05;9.63;;;4.13;;
3867;SDS011;1949;48.152;11.528;2023-01-19T12:14:40;13.50;;;3.30;;
3867;SDS011;1949;48.152;11.528;2023-01-19T12:17:07;7.93;;;3.97;;
3867;SDS011;1949;48.152;11.528;2023-01-19T12:28:41;6.40;;;3.30;;
3867;SDS011;1949;48.152;11.528;2023-01-19T12:31:16;7.90;;;3.37;;
3867;SDS011;1949;48.152;11.528;2023-01-19T12:33:52;5.67;;;3.37;;
3867;SDS011;1949;48.152;11.528;2023-01-19T12:39:20;8.40;;;4.10;;
3867;SDS011;1949;48.152;11.528;2023-01-19T12:42:02;6.60;;;3.30;;
3867;SDS011;1949;48.152;11.528;2023-01-19T12:44:33;7.00;;;3.63;;
3867;SDS011;1949;48.152;11.528;2023-01-19T12:49:52;10.13;;;3.57;;
3867;SDS011;1949;48.152;11.528;2023-01-19T12:52:38;8.97;;;4.37;;
3867;SDS011;1949;48.152;11.528;2023-01-19T13:03:03;8.30;;;4.13;;
3867;SDS011;1949;48.152;11.528;2023-01-19T13:13:36;7.20;;;3.63;;
3867;SDS011;1949;48.152;11.528;2023-01-19T13:24:07;11.90;;;5.20;;
3867;SDS011;1949;48.152;11.528;2023-01-19T13:31:54;10.10;;;4.53;;
3867;SDS011;1949;48.152;11.528;2023-01-19T13:34:29;12.10;;;4.13;;
3867;SDS011;1949;48.152;11.528;2023-01-19T13:37:03;9.43;;;4.70;;
3867;SDS011;1949;48.152;11.528;2023-01-19T13:39:35;20.43;;;7.57;;
3867;SDS011;1949;48.152;11.528;2023-01-19T13:42:14;15.50;;;5.70;;
3867;SDS011;1949;48.152;11.528;2023-01-19T13:45:02;13.83;;;6.07;;
3867;SDS011;1949;48.152;11.528;2023-01-19T13:47:52;13.47;;;7.03;;
3867;SDS011;1949;48.152;11.528;2023-01-19T13:50:24;12.43;;;4.87;;
3867;SDS011;1949;48.152;11.528;2023-01-19T13:52:53;14.13;;;4.47;;
3867;SDS011;1949;48.152;11.528;2023-01-19T13:55:20;5.80;;;3.07;;
3867;SDS011;1949;48.152;11.528;2023-01-19T13:57:47;4.70;;;2.77;;
3867;SDS011;1949;48.152;11.528;2023-01-19T14:00:18;4.27;;;2.80;;
3867;SDS011;1949;48.152;11.528;2023-01-19T14:08:17;4.57;;;2.00;;
3867;SDS011;1949;48.152;11.528;2023-01-19T14:10:59;2.93;;;2.10;;
3867;SDS011;1949;48.152;11.528;2023-01-19T14:13:31;3.33;;;1.93;;
3867;SDS011;1949;48.152;11.528;2023-01-19T14:16:06;2.70;;;1.67;;
3867;SDS011;1949;48.152;11.528;2023-01-19T14:18:37;6.73;;;2.10;;
3867;SDS011;1949;48.152;11.528;2023-01-19T14:21:14;3.00;;;1.87;;
3867;SDS011;1949;48.152;11.528;2023-01-19T14:23:47;4.33;;;2.13;;
3867;SDS011;1949;48.152;11.528;2023-01-19T14:32:21;5.13;;;2.30;;
3867;SDS011;1949;48.152;11.528;2023-01-19T14:42:54;7.50;;;3.33;;
3867;SDS011;1949;48.152;11.528;2023-01-19T14:45:29;5.13;;;2.77;;
3867;SDS011;1949;48.152;11.528;2023-01-19T14:48:13;11.73;;;3.43;;
3867;SDS011;1949;48.152;11.528;2023-01-19T14:50:41;9.93;;;3.60;;
3867;SDS011;1949;48.152;11.528;2023-01-19T14:53:20;7.23;;;3.27;;
3867;SDS011;1949;48.152;11.528;2023-01-19T14:55:55;2.90;;;2.20;;
3867;SDS011;1949;48.152;11.528;2023-01-19T14:58:26;2.87;;;2.13;;
3867;SDS011;1949;48.152;11.528;2023-01-19T15:01:03;8.87;;;3.60;;
3867;SDS011;1949;48.152;11.528;2023-01-19T15:03:31;9.00;;;3.63;;
3867;SDS011;1949;48.152;11.528;2023-01-19T15:05:59;4.57;;;2.67;;
3867;SDS011;1949;48.152;11.528;2023-01-19T15:13:50;5.40;;;2.57;;
3867;SDS011;1949;48.152;11.528;2023-01-19T15:16:17;7.43;;;3.67;;
3867;SDS011;1949;48.152;11.528;2023-01-19T15:21:18;22.43;;;3.20;;
3867;SDS011;1949;48.152;11.528;2023-01-19T15:23:51;3.87;;;2.40;;
3867;SDS011;1949;48.152;11.528;2023-01-19T15:26:23;10.00;;;2.87;;
3867;SDS011;1949;48.152;11.528;2023-01-19T15:28:50;11.90;;;3.30;;
3867;SDS011;1949;48.152;11.528;2023-01-19T15:31:19;2.63;;;2.20;;
3867;SDS011;1949;48.152;11.528;2023-01-19T15:33:48;5.23;;;2.13;;
3867;SDS011;1949;48.152;11.528;2023-01-19T15:36:21;5.63;;;3.07;;
3867;SDS011;1949;48.152;11.528;2023-01-19T15:38:50;3.83;;;2.43;;
3867;SDS011;1949;48.152;11.528;2023-01-19T15:43:49;6.30;;;2.63;;
3867;SDS011;1949;48.152;11.528;2023-01-19T15:46:22;8.67;;;3.60;;
3867;SDS011;1949;48.152;11.528;2023-01-19T15:48:50;5.30;;;3.20;;
3867;SDS011;1949;48.152;11.528;2023-01-19T15:51:21;5.30;;;3.03;;
3867;SDS011;1949;48.152;11.528;2023-01-19T15:53:52;8.73;;;3.13;;
3867;SDS011;1949;48.152;11.528;2023-01-19T15:56:22;6.23;;;3.63;;
3867;SDS011;1949;48.152;11.528;2023-01-19T15:58:58;5.87;;;2.97;;
3867;SDS011;1949;48.152;11.528;2023-01-19T16:01:27;10.70;;;4.00;;
3867;SDS011;1949;48.152;11.528;2023-01-19T16:04:05;8.10;;;3.90;;
3867;SDS011;1949;48.152;11.528;2023-01-19T16:09:03;8.17;;;3.87;;
3867;SDS011;1949;48.152;11.528;2023-01-19T16:11:35;6.63;;;3.67;;
3867;SDS011;1949;48.152;11.528;2023-01-19T16:14:02;5.10;;;3.03;;
3867;SDS011;1949;48.152;11.528;2023-01-19T16:16:28;7.43;;;3.67;;
3867;SDS011;1949;48.152;11.528;2023-01-19T16:18:56;7.17;;;3.93;;
3867;SDS011;1949;48.152;11.528;2023-01-19T16:21:23;7.50;;;3.97;;
3867;SDS011;1949;48.152;11.528;2023-01-19T16:23:50;8.23;;;4.40;;
3867;SDS011;1949;48.152;11.528;2023-01-19T16:26:29;3.50;;;2.63;;
3867;SDS011;1949;48.152;11.528;2023-01-19T16:29:01;9.33;;;3.80;;
3867;SDS011;1949;48.152;11.528;2023-01-19T16:31:41;5.70;;;2.97;;
3867;SDS011;1949;48.152;11.528;2023-01-19T16:34:09;6.73;;;3.63;;
3867;SDS011;1949;48.152;11.528;2023-01-19T16:36:36;9.13;;;4.07;;
3867;SDS011;1949;48.152;11.528;2023-01-19T16:39:12;6.47;;;3.10;;
3867;SDS011;1949;48.152;11.528;2023-01-19T16:44:11;9.17;;;4.03;;
3867;SDS011;1949;48.152;11.528;2023-01-19T16:46:52;4.53;;;2.87;;
3867;SDS011;1949;48.152;11.528;2023-01-19T16:49:29;11.73;;;3.40;;
3867;SDS011;1949;48.152;11.528;2023-01-19T16:51:55;7.60;;;4.00;;
3867;SDS011;1949;48.152;11.528;2023-01-19T16:54:23;12.60;;;3.80;;
3867;SDS011;1949;48.152;11.528;2023-01-19T16:56:50;6.37;;;2.80;;
3867;SDS011;1949;48.152;11.528;2023-01-19T16:59:16;8.43;;;4.00;;
3867;SDS011;1949;48.152;11.528;2023-01-19T17:01:43;8.97;;;3.73;;
3867;SDS011;1949;48.152;11.528;2023-01-19T17:04:12;4.77;;;3.23;;
3867;SDS011;1949;48.152;11.528;2023-01-19T17:06:38;7.40;;;3.90;;
3867;SDS011;1949;48.152;11.528;2023-01-19T17:09:04;11.90;;;5.00;;
3867;SDS011;1949;48.152;11.528;2023-01-19T17:11:31;12.43;;;3.60;;
3867;SDS011;1949;48.152;11.528;2023-01-19T17:14:00;10.57;;;4.20;;
3867;SDS011;1949;48.152;11.528;2023-01-19T17:16:28;7.90;;;3.43;;
3867;SDS011;1949;48.152;11.528;2023-01-19T17:18:56;8.13;;;4.17;;
3867;SDS011;1949;48.152;11.528;2023-01-19T17:21:23;7.50;;;2.70;;
3867;SDS011;1949;48.152;11.528;2023-01-19T17:23:50;9.13;;;4.70;;
3867;SDS011;1949;48.152;11.528;2023-01-19T17:26:20;5.20;;;3.40;;
3867;SDS011;1949;48.152;11.528;2023-01-19T17:28:47;4.13;;;2.63;;
3867;SDS011;1949;48.152;11.528;2023-01-19T17:31:15;7.57;;;3.40;;
3867;SDS011;1949;48.152;11.528;2023-01-19T17:33:46;5.80;;;3.33;;
3867;SDS011;1949;48.152;11.528;2023-01-19T17:36:15;17.63;;;4.50;;
3867;SDS011;1949;48.152;11.528;2023-01-19T17:38:47;12.80;;;5.13;;
3867;SDS011;1949;48.152;11.528;2023-01-19T17:43:46;6.47;;;3.50;;
3867;SDS011;1949;48.152;11.528;2023-01-19T17:46:14;8.93;;;3.13;;
3867;SDS011;1949;48.152;11.528;2023-01-19T17:48:41;4.47;;;2.93;;
3867;SDS011;1949;48.152;11.528;2023-01-19T17:51:09;9.57;;;4.87;;
3867;SDS011;1949;48.152;11.528;2023-01-19T17:53:37;7.23;;;3.17;;
3867;SDS011;1949;48.152;11.528;2023-01-19T17:56:08;5.90;;;3.43;;
3867;SDS011;1949;48.152;11.528;2023-01-19T17:58:36;16.50;;;3.30;;
3867;SDS011;1949;48.152;11.528;2023-01-19T18:01:15;9.60;;;4.27;;
3867;SDS011;1949;48.152;11.528;2023-01-19T18:03:46;5.90;;;3.20;;
3867;SDS011;1949;48.152;11.528;2023-01-19T18:06:12;5.60;;;2.90;;
3867;SDS011;1949;48.152;11.528;2023-01-19T18:08:39;9.37;;;3.47;;
3867;SDS011;1949;48.152;11.528;2023-01-19T18:11:07;3.60;;;2.50;;
3867;SDS011;1949;48.152;11.528;2023-01-19T18:13:34;6.17;;;3.37;;
3867;SDS011;1949;48.152;11.528;2023-01-19T18:16:01;5.47;;;2.60;;